createdAt,value
2023-01-11T00:00:49.667Z,7.46
2023-01-11T00:03:16.199Z,7.50
2023-01-11T00:05:44.040Z,7.49
2023-01-11T00:08:11.693Z,7.52
2023-01-11T00:10:38.443Z,7.59
2023-01-11T00:13:05.374Z,7.66
2023-01-11T00:15:31.755Z,7.70
2023-01-11T00:17:58.396Z,7.77
2023-01-11T00:20:25.095Z,7.77
2023-01-11T00:22:51.945Z,7.78
2023-01-11T00:25:18.420Z,7.78
2023-01-11T00:27:47.076Z,7.79
2023-01-11T00:30:13.676Z,7.84
2023-01-11T00:32:40.032Z,7.86
2023-01-11T00:35:07.119Z,7.84
2023-01-11T00:37:33.501Z,7.88
2023-01-11T00:39:59.946Z,7.90
2023-01-11T00:42:45.021Z,7.94
2023-01-11T00:45:29.639Z,7.93
2023-01-11T00:48:00.211Z,7.89
2023-01-11T00:50:29.330Z,7.97
2023-01-11T00:52:56.436Z,8.01
2023-01-11T00:55:24.154Z,8.00
2023-01-11T00:57:50.823Z,8.10
2023-01-11T01:00:18.543Z,8.09
2023-01-11T01:02:45.210Z,8.16
2023-01-11T01:05:12.073Z,8.15
2023-01-11T01:07:38.654Z,8.14
2023-01-11T01:10:05.843Z,8.23
2023-01-11T01:12:52.307Z,8.19
2023-01-11T01:15:18.971Z,8.26
2023-01-11T01:17:46.122Z,8.37
2023-01-11T01:20:13.423Z,8.40
2023-01-11T01:22:39.824Z,8.43
2023-01-11T01:25:06.426Z,8.49
2023-01-11T01:27:32.825Z,8.52
2023-01-11T01:29:59.184Z,8.57
2023-01-11T01:32:25.630Z,8.62
2023-01-11T01:34:51.987Z,8.62
2023-01-11T01:37:18.397Z,8.75
2023-01-11T01:39:44.746Z,8.72
2023-01-11T01:42:16.153Z,8.81
2023-01-11T01:45:00.822Z,8.84
2023-01-11T01:47:38.055Z,8.82
2023-01-11T01:50:15.761Z,8.86
2023-01-11T01:52:46.416Z,8.92
2023-01-11T01:55:18.542Z,8.93
2023-01-11T01:57:45.579Z,8.96
2023-01-11T02:00:13.436Z,8.97
2023-01-11T02:02:43.706Z,8.99
2023-01-11T02:05:11.064Z,9.03
2023-01-11T02:07:40.261Z,9.03
2023-01-11T02:10:15.052Z,8.97
2023-01-11T02:12:51.802Z,9.01
2023-01-11T02:15:21.573Z,8.97
2023-01-11T02:17:48.115Z,8.93
2023-01-11T02:20:30.237Z,8.96
2023-01-11T02:23:05.911Z,8.89
2023-01-11T02:25:51.530Z,8.84
2023-01-11T02:28:30.141Z,8.81
2023-01-11T02:31:23.634Z,8.71
2023-01-11T02:34:28.523Z,8.67
2023-01-11T02:37:23.043Z,8.56
2023-01-11T02:39:57.004Z,8.54
2023-01-11T02:42:51.279Z,8.50
2023-01-11T02:45:23.804Z,8.44
2023-01-11T02:48:04.870Z,8.41
2023-01-11T02:50:50.405Z,8.40
2023-01-11T02:53:30.283Z,8.40
2023-01-11T02:55:59.718Z,8.38
2023-01-11T02:58:30.252Z,8.42
2023-01-11T03:00:58.410Z,8.42
2023-01-11T03:03:27.586Z,8.42
2023-01-11T03:05:59.323Z,8.43
2023-01-11T03:08:46.700Z,8.44
2023-01-11T03:11:36.929Z,8.43
2023-01-11T03:14:26.117Z,8.40
2023-01-11T03:17:09.442Z,8.38
2023-01-11T03:19:42.485Z,8.41
2023-01-11T03:22:28.127Z,8.42
2023-01-11T03:25:23.370Z,8.47
2023-01-11T03:27:56.234Z,8.46
2023-01-11T03:30:44.767Z,8.46
2023-01-11T03:33:30.459Z,8.50
2023-01-11T03:36:27.863Z,8.50
2023-01-11T03:39:00.508Z,8.48
2023-01-11T03:41:32.334Z,8.50
2023-01-11T03:44:01.191Z,8.50
2023-01-11T03:46:31.133Z,8.50
2023-01-11T03:49:27.272Z,8.54
2023-01-11T03:51:54.880Z,8.62
2023-01-11T03:54:24.311Z,8.63
2023-01-11T03:57:04.780Z,8.61
2023-01-11T03:59:31.793Z,8.65
2023-01-11T04:01:59.029Z,8.70
2023-01-11T04:04:25.525Z,8.68
2023-01-11T04:06:52.010Z,8.72
2023-01-11T04:09:18.749Z,8.77
2023-01-11T04:11:45.497Z,8.78
2023-01-11T04:14:12.013Z,8.80
2023-01-11T04:16:38.521Z,8.85
2023-01-11T04:19:04.938Z,8.85
2023-01-11T04:21:31.321Z,8.89
2023-01-11T04:23:57.730Z,8.91
2023-01-11T04:26:24.104Z,8.97
2023-01-11T04:28:52.769Z,8.98
2023-01-11T04:31:20.468Z,8.95
2023-01-11T04:33:46.893Z,8.96
2023-01-11T04:36:13.441Z,8.94
2023-01-11T04:38:39.825Z,8.96
2023-01-11T04:41:24.555Z,9.01
2023-01-11T04:43:54.212Z,8.94
2023-01-11T04:46:20.618Z,8.97
2023-01-11T04:48:46.995Z,8.98
2023-01-11T04:51:13.342Z,8.99
2023-01-11T04:53:39.842Z,9.01
2023-01-11T04:56:07.076Z,9.04
2023-01-11T04:58:37.970Z,9.06
2023-01-11T05:01:12.190Z,9.14
2023-01-11T05:03:38.694Z,9.12
2023-01-11T05:06:05.435Z,9.15
2023-01-11T05:08:32.296Z,9.17
2023-01-11T05:11:01.649Z,9.19
2023-01-11T05:13:43.210Z,9.15
2023-01-11T05:16:14.571Z,9.23
2023-01-11T05:18:45.563Z,9.22
2023-01-11T05:21:14.632Z,9.30
2023-01-11T05:23:41.704Z,9.32
2023-01-11T05:26:14.370Z,9.30
2023-01-11T05:28:40.968Z,9.37
2023-01-11T05:31:07.327Z,9.37
2023-01-11T05:33:33.693Z,9.36
2023-01-11T05:36:01.925Z,9.41
2023-01-11T05:38:29.032Z,9.44
2023-01-11T05:41:00.800Z,9.48
2023-01-11T05:43:29.071Z,9.48
2023-01-11T05:45:57.283Z,9.48
2023-01-11T05:48:25.117Z,9.45
2023-01-11T05:50:52.995Z,9.43
2023-01-11T05:53:20.635Z,9.46
2023-01-11T05:55:57.499Z,9.46
2023-01-11T05:58:26.466Z,9.51
2023-01-11T06:00:55.566Z,9.54
2023-01-11T06:03:24.162Z,9.57
2023-01-11T06:05:51.889Z,9.59
2023-01-11T06:08:18.623Z,9.63
2023-01-11T06:10:55.848Z,9.63
2023-01-11T06:13:26.646Z,9.65
2023-01-11T06:16:15.200Z,9.68
2023-01-11T06:18:44.444Z,9.72
2023-01-11T06:21:12.224Z,9.67
2023-01-11T06:23:41.764Z,9.68
2023-01-11T06:26:10.867Z,9.75
2023-01-11T06:28:37.882Z,9.79
2023-01-11T06:31:05.634Z,9.82
2023-01-11T06:33:32.859Z,9.80
2023-01-11T06:36:02.324Z,9.85
2023-01-11T06:38:28.720Z,9.90
2023-01-11T06:41:00.688Z,9.87
2023-01-11T06:43:29.150Z,9.93
2023-01-11T06:45:56.631Z,9.93
2023-01-11T06:48:23.531Z,9.99
2023-01-11T06:50:51.942Z,9.99
2023-01-11T06:53:18.461Z,10.00
2023-01-11T06:55:45.298Z,10.00
2023-01-11T06:58:11.718Z,10.01
2023-01-11T07:00:38.411Z,10.07
2023-01-11T07:03:06.158Z,10.12
2023-01-11T07:05:36.475Z,10.16
2023-01-11T07:08:03.390Z,10.15
2023-01-11T07:10:29.911Z,10.17
2023-01-11T07:12:56.394Z,10.12
2023-01-11T07:15:22.851Z,10.05
2023-01-11T07:17:56.780Z,10.05
2023-01-11T07:20:24.325Z,10.12
2023-01-11T07:22:51.414Z,10.12
2023-01-11T07:25:18.437Z,10.14
2023-01-11T07:27:44.789Z,10.13
2023-01-11T07:30:11.827Z,10.17
2023-01-11T07:32:38.430Z,10.20
2023-01-11T07:35:05.356Z,10.20
2023-01-11T07:37:35.137Z,10.22
2023-01-11T07:40:01.558Z,10.28
2023-01-11T07:42:46.560Z,10.26
2023-01-11T07:45:13.062Z,10.23
2023-01-11T07:47:39.531Z,10.27
2023-01-11T07:50:06.571Z,10.30
2023-01-11T07:52:32.915Z,10.33
2023-01-11T07:55:02.442Z,10.41
2023-01-11T07:57:29.725Z,10.40
2023-01-11T07:59:56.174Z,10.39
2023-01-11T08:02:22.704Z,10.36
2023-01-11T08:04:49.153Z,10.36
2023-01-11T08:07:15.547Z,10.38
2023-01-11T08:09:41.929Z,10.40
2023-01-11T08:12:46.833Z,10.48
2023-01-11T08:15:14.064Z,10.46
2023-01-11T08:17:40.447Z,10.41
2023-01-11T08:20:06.932Z,10.44
2023-01-11T08:22:33.937Z,10.38
2023-01-11T08:25:00.316Z,10.41
2023-01-11T08:27:26.670Z,10.40
2023-01-11T08:29:53.023Z,10.46
2023-01-11T08:32:19.360Z,10.48
2023-01-11T08:34:45.729Z,10.50
2023-01-11T08:37:12.066Z,10.51
2023-01-11T08:39:40.276Z,10.47
2023-01-11T08:42:06.639Z,10.43
2023-01-11T08:44:34.331Z,10.39
2023-01-11T08:47:02.230Z,10.44
2023-01-11T08:49:30.307Z,10.40
2023-01-11T08:51:56.949Z,10.30
2023-01-11T08:54:23.458Z,10.22
2023-01-11T08:56:49.798Z,10.15
2023-01-11T08:59:16.199Z,10.10
2023-01-11T09:01:42.645Z,10.04
2023-01-11T09:04:23.100Z,9.95
2023-01-11T09:06:51.317Z,9.91
2023-01-11T09:09:17.839Z,9.92
2023-01-11T09:11:57.209Z,9.88
2023-01-11T09:14:25.280Z,9.84
2023-01-11T09:16:52.904Z,9.86
2023-01-11T09:19:19.499Z,9.79
2023-01-11T09:21:46.483Z,9.77
2023-01-11T09:24:13.097Z,9.78
2023-01-11T09:26:41.411Z,9.78
2023-01-11T09:29:08.301Z,9.73
2023-01-11T09:31:34.827Z,9.72
2023-01-11T09:34:01.432Z,9.66
2023-01-11T09:36:28.937Z,9.65
2023-01-11T09:38:57.390Z,9.65
2023-01-11T09:41:46.483Z,9.64
2023-01-11T09:44:18.825Z,9.65
2023-01-11T09:46:49.978Z,9.56
2023-01-11T09:49:25.310Z,9.59
2023-01-11T09:51:54.512Z,9.55
2023-01-11T09:54:25.959Z,9.56
2023-01-11T09:57:18.172Z,9.57
2023-01-11T09:59:52.726Z,9.56
2023-01-11T10:02:48.105Z,9.58
2023-01-11T10:05:31.885Z,9.56
2023-01-11T10:18:27.730Z,9.63
2023-01-11T10:18:28.980Z,9.62
2023-01-11T10:20:46.484Z,9.65
2023-01-11T10:23:31.989Z,9.59
2023-01-11T10:26:03.056Z,9.58
2023-01-11T10:28:42.830Z,9.54
2023-01-11T10:31:33.906Z,9.58
2023-01-11T10:34:02.172Z,9.56
2023-01-11T10:37:05.450Z,9.54
2023-01-11T10:39:52.202Z,9.57
2023-01-11T10:42:22.582Z,9.51
2023-01-11T10:45:03.870Z,9.54
2023-01-11T10:47:42.887Z,9.56
2023-01-11T10:50:26.730Z,9.57
2023-01-11T10:53:15.583Z,9.51
2023-01-11T10:55:50.861Z,9.48
2023-01-11T10:58:26.715Z,9.48
2023-01-11T11:01:12.281Z,9.46
2023-01-11T11:04:21.453Z,9.41
2023-01-11T11:07:02.006Z,9.32
2023-01-11T11:09:40.524Z,9.35
2023-01-11T11:12:34.257Z,9.30
2023-01-11T11:15:20.408Z,9.30
2023-01-11T11:17:51.019Z,9.30
2023-01-11T11:20:28.718Z,9.33
2023-01-11T11:22:58.442Z,9.26
2023-01-11T11:25:29.765Z,9.27
2023-01-11T11:28:23.616Z,9.27
2023-01-11T11:30:54.184Z,9.29
2023-01-11T11:33:24.719Z,9.28
2023-01-11T11:36:12.139Z,9.30
2023-01-11T11:38:58.951Z,9.32
2023-01-11T11:41:25.349Z,9.30
2023-01-11T11:43:51.716Z,9.30
2023-01-11T11:46:26.383Z,9.31
2023-01-11T11:49:15.416Z,9.25
2023-01-11T11:51:43.644Z,9.27
2023-01-11T11:54:36.007Z,9.18
2023-01-11T11:57:21.099Z,9.17
2023-01-11T11:59:49.810Z,9.26
2023-01-11T12:02:31.408Z,9.38
2023-01-11T12:05:00.529Z,9.46
2023-01-11T12:07:49.748Z,9.65
2023-01-11T12:10:23.642Z,9.84
2023-01-11T12:13:01.407Z,10.01
2023-01-11T12:15:30.932Z,10.16
2023-01-11T12:18:32.767Z,10.38
2023-01-11T12:21:31.478Z,10.43
2023-01-11T12:24:06.820Z,10.51
2023-01-11T12:26:40.473Z,10.37
2023-01-11T12:29:28.370Z,10.42
2023-01-11T12:32:20.579Z,10.26
2023-01-11T12:35:25.094Z,9.99
2023-01-11T12:37:54.217Z,9.97
2023-01-11T12:40:34.435Z,9.80
2023-01-11T12:43:20.681Z,9.80
2023-01-11T12:46:00.393Z,9.83
2023-01-11T12:48:43.357Z,9.89
2023-01-11T12:51:22.592Z,10.00
2023-01-11T12:54:19.571Z,10.14
2023-01-11T12:57:13.899Z,10.22
2023-01-11T13:00:08.129Z,10.22
2023-01-11T13:03:02.201Z,10.11
2023-01-11T13:06:09.064Z,10.12
2023-01-11T13:08:47.983Z,10.06
2023-01-11T13:11:37.472Z,10.08
2023-01-11T13:14:36.160Z,10.10
2023-01-11T13:17:24.904Z,10.10
2023-01-11T13:20:09.981Z,9.93
2023-01-11T13:22:40.245Z,9.89
2023-01-11T13:25:18.381Z,9.84
2023-01-11T13:27:46.578Z,9.81
2023-01-11T13:30:14.817Z,9.78
2023-01-11T13:32:46.036Z,9.77
2023-01-11T13:35:20.062Z,9.68
2023-01-11T13:38:09.616Z,9.63
2023-01-11T13:40:42.183Z,9.60
2023-01-11T13:43:30.108Z,9.65
2023-01-11T13:46:07.036Z,9.63
2023-01-11T13:48:52.559Z,9.63
2023-01-11T13:51:38.696Z,9.61
2023-01-11T13:54:16.622Z,9.61
2023-01-11T13:56:50.642Z,9.68
2023-01-11T13:59:29.371Z,9.78
2023-01-11T14:02:01.384Z,9.91
2023-01-11T14:04:40.908Z,9.87
2023-01-11T14:07:30.400Z,9.85
2023-01-11T14:10:18.745Z,9.85
2023-01-11T14:13:01.067Z,9.80
2023-01-11T14:15:40.920Z,9.87
2023-01-11T14:18:18.097Z,9.88
2023-01-11T14:21:00.300Z,9.87
2023-01-11T14:23:44.855Z,9.84
2023-01-11T14:26:19.529Z,9.79
2023-01-11T14:29:30.992Z,9.81
2023-01-11T14:32:25.095Z,9.76
2023-01-11T14:35:10.364Z,9.72
2023-01-11T14:38:01.243Z,9.75
2023-01-11T14:40:39.358Z,9.78
2023-01-11T14:43:35.959Z,9.77
2023-01-11T14:46:53.524Z,9.80
2023-01-11T14:49:43.820Z,9.88
2023-01-11T14:52:16.175Z,9.88
2023-01-11T14:54:47.325Z,9.92
2023-01-11T14:57:40.575Z,9.91
2023-01-11T15:00:18.703Z,9.86
2023-01-11T15:03:06.064Z,9.75
2023-01-11T15:05:38.651Z,9.76
2023-01-11T15:08:13.780Z,9.72
2023-01-11T15:10:56.518Z,9.78
2023-01-11T15:13:36.798Z,9.83
2023-01-11T15:16:56.383Z,9.83
2023-01-11T15:19:28.574Z,9.71
2023-01-11T15:21:56.425Z,9.64
2023-01-11T15:24:29.864Z,9.72
2023-01-11T15:26:58.805Z,9.66
2023-01-11T15:29:35.374Z,9.54
2023-01-11T15:32:01.857Z,9.52
2023-01-11T15:34:39.424Z,9.44
2023-01-11T15:37:31.208Z,9.45
2023-01-11T15:40:03.857Z,9.43
2023-01-11T15:42:48.964Z,9.37
2023-01-11T15:46:04.694Z,9.33
2023-01-11T15:48:52.168Z,9.33
2023-01-11T15:51:40.254Z,9.30
2023-01-11T15:54:31.523Z,9.32
2023-01-11T15:57:22.809Z,9.31
2023-01-11T16:00:34.688Z,9.22
2023-01-11T16:03:30.021Z,9.16
2023-01-11T16:06:23.901Z,9.19
2023-01-11T16:08:58.608Z,9.07
2023-01-11T16:11:34.701Z,8.99
2023-01-11T16:14:17.540Z,8.99
2023-01-11T16:16:45.041Z,8.99
2023-01-11T16:19:19.848Z,8.94
2023-01-11T16:21:49.854Z,8.93
2023-01-11T16:24:20.209Z,8.89
2023-01-11T16:27:06.131Z,8.84
2023-01-11T16:29:37.695Z,8.85
2023-01-11T16:32:06.835Z,8.84
2023-01-11T16:34:41.425Z,8.99
2023-01-11T16:37:24.811Z,9.03
2023-01-11T16:39:56.361Z,9.09
2023-01-11T16:42:24.119Z,9.19
2023-01-11T16:44:59.013Z,9.09
2023-01-11T16:47:25.381Z,9.10
2023-01-11T16:50:20.545Z,9.11
2023-01-11T16:52:49.932Z,9.11
2023-01-11T16:55:20.917Z,8.99
2023-01-11T16:57:51.747Z,8.93
2023-01-11T17:00:32.404Z,8.91
2023-01-11T17:03:17.925Z,8.83
2023-01-11T17:06:07.366Z,8.77
2023-01-11T17:08:39.375Z,8.72
2023-01-11T17:11:30.791Z,8.74
2023-01-11T17:14:13.924Z,8.72
2023-01-11T17:16:44.081Z,8.89
2023-01-11T17:19:20.056Z,8.94
2023-01-11T17:21:50.374Z,8.98
2023-01-11T17:24:18.716Z,9.00
2023-01-11T17:26:49.125Z,9.02
2023-01-11T17:29:22.500Z,9.01
2023-01-11T17:31:49.448Z,9.05
2023-01-11T17:34:24.097Z,8.90
2023-01-11T17:36:50.971Z,8.95
2023-01-11T17:39:33.429Z,8.94
2023-01-11T17:42:21.518Z,8.97
2023-01-11T17:45:08.877Z,8.94
2023-01-11T17:47:38.805Z,8.88
2023-01-11T17:50:06.289Z,8.94
2023-01-11T17:52:43.726Z,8.89
2023-01-11T17:55:23.373Z,8.88
2023-01-11T17:58:10.723Z,8.78
2023-01-11T18:00:37.368Z,8.80
2023-01-11T18:03:15.667Z,8.79
2023-01-11T18:05:42.862Z,8.76
2023-01-11T18:08:19.344Z,8.77
2023-01-11T18:10:55.211Z,8.81
2023-01-11T18:13:33.818Z,8.76
2023-01-11T18:16:01.495Z,8.78
2023-01-11T18:18:48.041Z,8.75
2023-01-11T18:21:26.491Z,8.70
2023-01-11T18:24:11.107Z,8.69
2023-01-11T18:26:39.603Z,8.70
2023-01-11T18:29:06.373Z,8.66
2023-01-11T18:31:32.749Z,8.64
2023-01-11T18:34:05.630Z,8.65
2023-01-11T18:36:31.996Z,8.63
2023-01-11T18:38:58.326Z,8.62
2023-01-11T18:41:44.713Z,8.67
2023-01-11T18:44:11.871Z,8.64
2023-01-11T18:46:38.261Z,8.60
2023-01-11T18:49:04.594Z,8.54
2023-01-11T18:51:36.823Z,8.51
2023-01-11T18:54:03.349Z,8.49
2023-01-11T18:56:29.729Z,8.47
2023-01-11T18:58:56.212Z,8.45
2023-01-11T19:01:22.684Z,8.37
2023-01-11T19:03:49.443Z,8.35
2023-01-11T19:06:19.234Z,8.35
2023-01-11T19:08:45.608Z,8.39
2023-01-11T19:11:13.812Z,8.32
2023-01-11T19:13:40.206Z,8.31
2023-01-11T19:16:07.264Z,8.35
2023-01-11T19:18:35.326Z,8.28
2023-01-11T19:21:03.713Z,8.25
2023-01-11T19:23:30.515Z,8.27
2023-01-11T19:25:58.196Z,8.30
2023-01-11T19:28:24.539Z,8.38
2023-01-11T19:30:51.038Z,8.29
2023-01-11T19:33:17.607Z,8.23
2023-01-11T19:35:44.321Z,8.24
2023-01-11T19:38:10.719Z,8.27
2023-01-11T19:40:37.092Z,8.23
2023-01-11T19:43:03.525Z,8.20
2023-01-11T19:45:29.925Z,8.23
2023-01-11T19:47:58.176Z,8.25
2023-01-11T19:50:24.574Z,8.26
2023-01-11T19:52:50.918Z,8.37
2023-01-11T19:55:17.762Z,8.32
2023-01-11T19:57:44.868Z,8.31
2023-01-11T20:00:14.277Z,8.34
2023-01-11T20:02:40.972Z,8.26
2023-01-11T20:05:07.648Z,8.34
2023-01-11T20:07:34.140Z,8.34
2023-01-11T20:10:00.505Z,8.37
2023-01-11T20:12:26.864Z,8.34
2023-01-11T20:14:56.894Z,8.33
2023-01-11T20:17:23.922Z,8.29
2023-01-11T20:19:54.320Z,8.36
2023-01-11T20:22:24.530Z,8.41
2023-01-11T20:24:51.107Z,8.44
2023-01-11T20:27:17.888Z,8.38
2023-01-11T20:29:45.552Z,8.43
2023-01-11T20:32:35.010Z,8.43
2023-01-11T20:34:58.461Z,8.41
2023-01-11T20:37:24.834Z,8.48
2023-01-11T20:39:51.185Z,8.46
2023-01-11T20:42:17.558Z,8.50
2023-01-11T20:44:44.297Z,8.55
2023-01-11T20:47:10.789Z,8.53
2023-01-11T20:49:37.122Z,8.60
2023-01-11T20:52:04.178Z,8.60
2023-01-11T20:54:30.558Z,8.57
2023-01-11T20:57:01.926Z,8.63
2023-01-11T20:59:28.329Z,8.67
2023-01-11T21:01:54.724Z,8.73
2023-01-11T21:04:21.127Z,8.72
2023-01-11T21:06:48.257Z,8.80
2023-01-11T21:09:16.960Z,8.84
2023-01-11T21:11:44.249Z,8.83
2023-01-11T21:14:13.176Z,8.87
2023-01-11T21:16:41.411Z,8.79
2023-01-11T21:19:10.506Z,8.68
2023-01-11T21:21:36.871Z,8.45
2023-01-11T21:24:04.769Z,8.31
2023-01-11T21:26:31.917Z,8.32
2023-01-11T21:29:00.639Z,8.31
2023-01-11T21:31:28.884Z,8.23
2023-01-11T21:33:55.519Z,8.20
2023-01-11T21:36:24.386Z,8.16
2023-01-11T21:38:50.957Z,8.18
2023-01-11T21:41:40.105Z,8.16
2023-01-11T21:44:07.227Z,8.04
2023-01-11T21:46:33.906Z,8.10
2023-01-11T21:49:00.325Z,8.11
2023-01-11T21:51:29.639Z,8.16
2023-01-11T21:53:57.137Z,8.14
2023-01-11T21:56:23.957Z,8.17
2023-01-11T21:58:50.656Z,8.19
2023-01-11T22:01:24.176Z,8.27
2023-01-11T22:03:50.723Z,8.37
2023-01-11T22:06:17.545Z,8.35
2023-01-11T22:08:45.013Z,8.32
2023-01-11T22:11:13.304Z,8.33
2023-01-11T22:13:39.678Z,8.35
2023-01-11T22:16:10.494Z,8.44
2023-01-11T22:18:37.142Z,8.43
2023-01-11T22:21:15.271Z,8.47
2023-01-11T22:23:41.805Z,8.48
2023-01-11T22:26:11.020Z,8.56
2023-01-11T22:28:56.516Z,8.67
2023-01-11T22:31:23.831Z,8.75
2023-01-11T22:33:50.814Z,8.79
2023-01-11T22:36:17.646Z,8.82
2023-01-11T22:38:44.009Z,8.90
2023-01-11T22:41:10.775Z,8.89
2023-01-11T22:43:37.122Z,8.91
2023-01-11T22:46:03.645Z,8.90
2023-01-11T22:48:31.390Z,8.85
2023-01-11T22:50:58.153Z,8.94
2023-01-11T22:53:24.529Z,8.95
2023-01-11T22:55:50.871Z,8.87
2023-01-11T22:58:17.232Z,8.92
2023-01-11T23:00:43.610Z,8.88
2023-01-11T23:03:10.135Z,8.78
2023-01-11T23:05:36.688Z,8.64
2023-01-11T23:08:03.149Z,8.59
2023-01-11T23:10:29.500Z,8.55
2023-01-11T23:13:14.401Z,8.45
2023-01-11T23:15:40.833Z,8.37
2023-01-11T23:18:09.292Z,8.32
2023-01-11T23:20:35.667Z,8.22
2023-01-11T23:23:02.033Z,8.24
2023-01-11T23:25:28.450Z,8.20
2023-01-11T23:27:55.421Z,8.15
2023-01-11T23:30:21.950Z,8.10
2023-01-11T23:32:48.357Z,8.14
2023-01-11T23:35:14.771Z,8.07
2023-01-11T23:37:41.184Z,8.09
2023-01-11T23:40:08.510Z,8.10
2023-01-11T23:42:35.419Z,8.01
2023-01-11T23:45:01.864Z,7.98
2023-01-11T23:47:29.727Z,7.93
2023-01-11T23:50:00.251Z,7.82
2023-01-11T23:52:29.364Z,7.83
2023-01-11T23:54:55.887Z,7.86
2023-01-11T23:57:24.274Z,7.87
2023-01-11T23:59:50.960Z,7.82
